Mercer, Missouri
Current Conditions -  °F | °C
As of 5:53 PM on Wednesday 26 Nov 2014 (Local Time) from KLWD Reporting Station
Overcast Overcast  
Wind Chill: -9°   Ceiling: 800
Heat Index: -2°   Visibility: 7mi
Dew Point: -3°   Wind: 20mph
Humidity: 89%   Direction: 340°NNW
Pressure: 30.16"   Gusts: NA
Location:  40.51°N, 93.53°W
Report Text: KLWD 262353Z AUTO 34017KT 7SM OVC008 M02/M03 A3016 RMK AO2 SLP226 T10171033 10006 21017 53045
Loading
Personal Weather Stations






























Interactive Weather Map New forecast layout! Learn more

10-Day Weather Forecast

Advertisements
Track Severe Weather on mobile